Time;durP1;ratioP1;P1;durP2;ratioP2;P2;SDS_P1;SDS_P2;PMS_P1;PMS_P2;Temp;Humidity;BMP_temperature;BMP_pressure;BME280_temperature;BME280_humidity;BME280_pressure;Samples;Min_cycle;Max_cycle;Signal;HPM_P1;HPM_P2
2023/01/01 00:01:55;;;;;;;0.10;0.10;;;;;;;15.46;62.57;100765.69;5014758;28;20038;-76
2023/01/01 00:04:20;;;;;;;0.10;0.10;;;;;;;15.29;62.07;100756.53;4997168;28;20551;-77
2023/01/01 00:06:45;;;;;;;0.10;0.10;;;;;;;15.38;61.79;100749.38;4998702;28;20041;-78
2023/01/01 00:11:54;;;;;;;0.10;0.10;;;;;;;15.44;62.24;100789.34;5009657;28;20068;-77
2023/01/01 00:14:20;;;;;;;0.10;0.10;;;;;;;15.57;60.52;100776.28;5013672;28;20474;-76
2023/01/01 00:16:45;;;;;;;0.10;0.10;;;;;;;15.43;61.52;100774.09;5011006;28;20057;-78
2023/01/01 00:19:10;;;;;;;0.10;0.10;;;;;;;15.14;62.78;100764.31;4997555;28;20037;-81
2023/01/01 00:21:36;;;;;;;0.08;0.08;;;;;;;15.32;61.89;100785.13;5010095;28;20033;-78
2023/01/01 00:24:01;;;;;;;0.10;0.10;;;;;;;15.34;61.86;100770.47;5010351;28;20026;-77
2023/01/01 00:26:27;;;;;;;0.10;0.10;;;;;;;15.25;62.06;100761.38;5012533;28;20761;-78
2023/01/01 00:28:52;;;;;;;0.03;0.03;;;;;;;15.29;62.52;100789.00;5012233;28;20025;-76
2023/01/01 00:31:19;;;;;;;0.00;0.00;;;;;;;15.13;64.00;100781.56;4996119;28;20424;-76
2023/01/01 00:33:48;;;;;;;0.05;0.05;;;;;;;15.36;61.52;100754.06;5003655;28;20148;-75
2023/01/01 00:36:15;;;;;;;0.00;0.00;;;;;;;15.34;61.29;100758.78;4993139;28;20041;-76
2023/01/01 00:38:41;;;;;;;0.10;0.10;;;;;;;15.30;60.83;100761.78;4993284;28;20029;-78
2023/01/01 00:41:07;;;;;;;0.00;0.00;;;;;;;15.20;61.11;100758.31;5006427;28;20034;-77
2023/01/01 00:43:32;;;;;;;0.10;0.10;;;;;;;15.20;61.93;100750.19;5006605;28;20104;-81
2023/01/01 00:45:58;;;;;;;0.00;0.00;;;;;;;14.95;62.32;100743.66;5006272;28;20067;-82
2023/01/01 00:48:23;;;;;;;0.10;0.10;;;;;;;15.04;60.75;100709.44;5005597;28;20025;-78
2023/01/01 00:50:49;;;;;;;0.10;0.10;;;;;;;14.90;62.80;100757.63;5007056;28;20037;-78
2023/01/01 00:53:15;;;;;;;0.10;0.10;;;;;;;15.02;60.64;100743.88;4994456;28;20052;-76
2023/01/01 00:55:41;;;;;;;0.10;0.10;;;;;;;15.19;60.32;100764.72;5007501;28;20029;-79
2023/01/01 00:58:06;;;;;;;0.10;0.10;;;;;;;15.17;61.10;100766.72;4993394;28;20094;-77
2023/01/01 01:00:32;;;;;;;0.10;0.10;;;;;;;15.23;58.94;100755.28;5007725;28;20038;-76
2023/01/01 01:02:57;;;;;;;0.05;0.05;;;;;;;15.18;60.12;100781.09;5001224;28;20037;-77
2023/01/01 01:05:22;;;;;;;0.00;0.00;;;;;;;15.10;59.67;100762.91;5004900;28;20033;-76
2023/01/01 01:07:48;;;;;;;0.00;0.00;;;;;;;15.33;58.89;100762.50;4994819;28;20487;-74
2023/01/01 01:10:13;;;;;;;0.10;0.10;;;;;;;15.41;58.59;100804.00;5001657;28;20530;-76
2023/01/01 01:12:39;;;;;;;0.10;0.10;;;;;;;15.34;58.60;100800.22;4995017;28;20039;-76
2023/01/01 01:15:05;;;;;;;0.10;0.10;;;;;;;15.32;58.19;100758.09;5004726;28;20809;-75
2023/01/01 01:17:30;;;;;;;0.10;0.10;;;;;;;15.33;58.17;100789.53;5008987;28;20523;-76
2023/01/01 01:19:55;;;;;;;0.10;0.10;;;;;;;15.18;59.53;100764.84;4994125;28;20034;-76
2023/01/01 01:22:21;;;;;;;0.00;0.00;;;;;;;15.19;59.10;100797.19;5000567;28;20021;-75
2023/01/01 01:24:46;;;;;;;0.00;0.00;;;;;;;15.42;58.48;100785.94;5011247;28;20033;-77
2023/01/01 01:27:11;;;;;;;0.00;0.00;;;;;;;15.21;59.00;100762.72;5009532;28;20037;-77
2023/01/01 01:29:36;;;;;;;0.10;0.10;;;;;;;15.32;58.68;100775.19;5001224;28;20475;-77
2023/01/01 01:32:02;;;;;;;0.10;0.10;;;;;;;15.33;58.78;100784.13;5006850;28;20156;-77
2023/01/01 01:34:27;;;;;;;0.03;0.03;;;;;;;15.21;59.48;100765.44;5006303;28;20030;-76
2023/01/01 01:36:53;;;;;;;0.10;0.10;;;;;;;15.18;59.75;100762.16;5011828;28;20037;-80
2023/01/01 01:39:18;;;;;;;0.10;0.10;;;;;;;15.36;58.99;100778.41;5013179;28;20728;-75
2023/01/01 01:41:44;;;;;;;0.13;0.10;;;;;;;15.23;59.10;100803.13;5019918;28;20029;-76
2023/01/01 01:44:48;;;;;;;0.00;0.00;;;;;;;15.14;61.04;100831.94;5017919;28;20463;-74
2023/01/01 01:47:15;;;;;;;0.10;0.10;;;;;;;14.83;61.17;100797.06;5016040;28;20116;-76
2023/01/01 01:49:42;;;;;;;0.03;0.03;;;;;;;15.05;61.39;100813.88;5018774;28;20119;-77
2023/01/01 01:52:07;;;;;;;0.08;0.08;;;;;;;14.88;61.39;100788.50;5013043;28;20051;-75
2023/01/01 01:54:33;;;;;;;0.00;0.00;;;;;;;15.23;59.93;100822.91;5016284;28;20461;-77
2023/01/01 01:57:07;;;;;;;0.00;0.00;;;;;;;15.23;60.58;100805.81;5015979;28;20072;-77
2023/01/01 01:59:35;;;;;;;0.10;0.10;;;;;;;14.96;60.47;100777.78;5015269;28;20092;-77
2023/01/01 02:02:00;;;;;;;0.10;0.10;;;;;;;15.02;61.43;100774.50;5019833;28;20147;-76
2023/01/01 02:04:26;;;;;;;0.10;0.10;;;;;;;14.94;61.95;100839.25;5017289;28;20031;-80
2023/01/01 02:06:53;;;;;;;0.10;0.10;;;;;;;14.87;61.99;100819.22;5016526;28;20112;-78
2023/01/01 02:09:18;;;;;;;0.00;0.00;;;;;;;15.17;59.37;100825.34;5012684;28;20105;-80
2023/01/01 02:11:43;;;;;;;0.10;0.10;;;;;;;14.92;61.52;100838.56;5010535;28;20045;-79
2023/01/01 02:14:09;;;;;;;0.05;0.05;;;;;;;14.78;62.37;100829.94;5010078;28;20029;-83
2023/01/01 02:16:47;;;;;;;0.10;0.10;;;;;;;14.81;61.11;100839.59;5012600;28;20551;-75
2023/01/01 02:19:40;;;;;;;0.10;0.10;;;;;;;14.64;61.49;100868.19;5013307;28;20040;-74
2023/01/01 02:22:34;;;;;;;0.10;0.10;;;;;;;14.53;61.40;100836.78;5013160;28;20108;-75
2023/01/01 02:25:21;;;;;;;0.00;0.00;;;;;;;14.68;60.99;100865.09;5015255;28;20041;-75
2023/01/01 02:27:58;;;;;;;0.10;0.10;;;;;;;14.65;61.41;100850.97;5014010;28;20056;-80
2023/01/01 02:30:23;;;;;;;0.00;0.00;;;;;;;14.63;60.69;100843.03;5008850;28;20036;-80
2023/01/01 02:32:53;;;;;;;0.05;0.05;;;;;;;14.64;61.17;100866.34;5010627;28;20057;-76
2023/01/01 02:35:35;;;;;;;0.00;0.00;;;;;;;14.39;62.94;100848.91;5013342;28;20117;-79
2023/01/01 02:38:09;;;;;;;0.00;0.00;;;;;;;14.38;62.94;100847.19;5017888;28;20032;-75
2023/01/01 02:40:35;;;;;;;;;;;;;;;14.24;65.23;100833.16;5013475;28;20021;-80
2023/01/01 02:43:02;;;;;;;0.00;0.00;;;;;;;14.02;64.37;100839.69;5016164;28;20413;-78
2023/01/01 02:45:27;;;;;;;0.00;0.00;;;;;;;14.17;63.43;100836.59;5015554;28;20033;-75
2023/01/01 02:47:52;;;;;;;0.10;0.10;;;;;;;14.04;62.80;100793.66;5014371;28;20033;-79
2023/01/01 02:50:21;;;;;;;0.10;0.10;;;;;;;14.37;62.58;100840.09;5012148;28;20454;-75
2023/01/01 02:53:23;;;;;;;0.10;0.10;;;;;;;14.36;62.16;100841.09;5014945;28;20034;-78
2023/01/01 02:55:59;;;;;;;0.10;0.10;;;;;;;14.23;61.94;100836.84;5015612;28;20090;-81
2023/01/01 03:01:34;;;;;;;0.08;0.08;;;;;;;14.37;60.83;100859.88;5015278;28;20064;-79
2023/01/01 03:04:17;;;;;;;0.00;0.00;;;;;;;14.26;61.69;100860.00;5014369;28;20535;-79
2023/01/01 03:06:59;;;;;;;0.10;0.10;;;;;;;14.34;61.71;100856.56;5015544;28;21246;-79
2023/01/01 03:09:43;;;;;;;0.00;0.00;;;;;;;14.52;60.16;100865.66;5010351;28;20049;-76
2023/01/01 03:12:38;;;;;;;0.10;0.10;;;;;;;14.48;60.46;100848.03;5006881;28;20033;-75
2023/01/01 03:15:25;;;;;;;0.10;0.10;;;;;;;14.47;59.64;100846.34;5011190;28;20033;-79
2023/01/01 03:18:03;;;;;;;0.00;0.00;;;;;;;14.31;61.11;100835.25;5009689;28;20041;-76
2023/01/01 03:20:32;;;;;;;0.03;0.03;;;;;;;14.36;62.52;100865.38;5011937;28;20374;-78
2023/01/01 03:23:06;;;;;;;0.00;0.00;;;;;;;14.46;61.30;100859.97;5012120;28;20040;-79
2023/01/01 03:25:36;;;;;;;0.10;0.10;;;;;;;14.43;60.77;100871.94;5010230;28;20029;-78
2023/01/01 03:28:05;;;;;;;0.00;0.00;;;;;;;14.57;60.53;100865.22;5012875;28;20021;-79
2023/01/01 03:30:34;;;;;;;0.10;0.10;;;;;;;14.39;61.88;100875.91;5012116;28;20469;-76
2023/01/01 03:33:03;;;;;;;0.10;0.10;;;;;;;14.30;62.31;100874.94;4996729;28;20636;-79
2023/01/01 03:35:34;;;;;;;0.03;0.03;;;;;;;14.17;62.12;100826.63;5009804;28;20432;-77
2023/01/01 03:38:00;;;;;;;0.10;0.10;;;;;;;14.36;62.34;100876.19;5013991;28;20033;-79
2023/01/01 03:40:27;;;;;;;0.10;0.10;;;;;;;14.39;61.87;100874.06;5012620;28;20041;-80
2023/01/01 03:43:03;;;;;;;0.10;0.10;;;;;;;14.39;62.65;100879.47;5012307;28;20038;-77
2023/01/01 03:45:32;;;;;;;0.00;0.00;;;;;;;14.27;63.31;100871.66;5014038;28;20064;-77
2023/01/01 03:47:58;;;;;;;0.00;0.00;;;;;;;14.06;64.14;100868.13;5013943;28;20140;-76
2023/01/01 03:50:31;;;;;;;0.00;0.00;;;;;;;14.26;64.66;100873.50;5013624;28;20523;-74
2023/01/01 03:53:07;;;;;;;0.08;0.08;;;;;;;14.14;63.60;100891.69;5014074;28;20033;-76
2023/01/01 03:55:36;;;;;;;0.10;0.10;;;;;;;14.30;63.24;100896.53;5014291;28;20448;-77
2023/01/01 03:58:04;;;;;;;0.08;0.08;;;;;;;14.16;64.50;100896.97;5011409;28;20350;-78
2023/01/01 04:00:39;;;;;;;0.00;0.00;;;;;;;14.06;65.06;100895.09;5014686;28;20040;-79
2023/01/01 04:03:26;;;;;;;0.00;0.00;;;;;;;14.16;65.14;100905.06;5027766;28;20486;-77
2023/01/01 04:05:51;;;;;;;0.10;0.10;;;;;;;13.91;66.25;100893.81;5016449;28;20034;-77
2023/01/01 04:08:17;;;;;;;0.10;0.10;;;;;;;14.06;66.22;100910.44;5013014;28;20099;-76
2023/01/01 04:10:44;;;;;;;0.10;0.10;;;;;;;14.31;64.53;100909.03;5012611;28;20570;-77
2023/01/01 04:13:10;;;;;;;0.03;0.03;;;;;;;14.05;66.68;100901.50;5010916;28;20466;-76
2023/01/01 04:15:35;;;;;;;0.10;0.10;;;;;;;14.07;66.36;100874.34;5011004;28;20037;-77
2023/01/01 04:18:01;;;;;;;0.00;0.00;;;;;;;14.21;65.08;100917.16;5011953;28;20067;-78
2023/01/01 04:20:26;;;;;;;0.10;0.10;;;;;;;14.16;66.80;100924.81;5012972;28;20033;-77
2023/01/01 04:22:55;;;;;;;0.00;0.00;;;;;;;14.20;65.96;100931.63;5011391;28;20034;-75
2023/01/01 04:25:21;;;;;;;0.10;0.10;;;;;;;14.07;66.22;100904.91;5005357;28;20120;-79
2023/01/01 04:27:46;;;;;;;0.10;0.10;;;;;;;14.07;66.74;100915.72;5017671;28;20116;-79
2023/01/01 04:30:12;;;;;;;0.00;0.00;;;;;;;14.02;66.78;100917.13;5019570;28;20108;-78
2023/01/01 04:32:38;;;;;;;0.10;0.10;;;;;;;13.85;67.27;100886.28;5003758;28;20116;-78
2023/01/01 04:35:04;;;;;;;0.10;0.10;;;;;;;13.89;68.24;100906.59;5005901;28;20218;-77
2023/01/01 04:37:29;;;;;;;0.10;0.10;;;;;;;13.95;68.49;100906.03;5020220;28;20029;-77
2023/01/01 04:39:55;;;;;;;0.10;0.10;;;;;;;14.03;67.81;100905.34;5020532;28;20498;-76
2023/01/01 04:42:20;;;;;;;0.00;0.00;;;;;;;13.70;68.83;100873.19;4997082;28;20095;-77
2023/01/01 04:44:45;;;;;;;0.10;0.10;;;;;;;13.95;68.43;100919.53;4993631;28;20037;-79
2023/01/01 04:47:11;;;;;;;0.10;0.10;;;;;;;14.04;67.37;100912.41;5011360;28;20068;-79
2023/01/01 04:49:36;;;;;;;0.10;0.10;;;;;;;14.04;68.41;100917.81;5012828;28;20033;-78
2023/01/01 04:52:02;;;;;;;0.10;0.10;;;;;;;13.97;68.77;100932.91;5010938;28;20029;-79
2023/01/01 04:54:27;;;;;;;0.05;0.05;;;;;;;13.99;68.69;100936.31;5014934;28;20063;-75
2023/01/01 04:56:52;;;;;;;0.00;0.00;;;;;;;13.86;68.90;100920.38;5014434;28;20075;-76
2023/01/01 04:59:18;;;;;;;0.00;0.00;;;;;;;13.70;71.17;100918.22;5011122;28;20396;-75
2023/01/01 05:01:43;;;;;;;0.10;0.10;;;;;;;13.75;69.77;100914.09;5015652;28;20116;-77
2023/01/01 05:04:12;;;;;;;0.10;0.10;;;;;;;13.91;69.28;100936.97;5014014;28;20035;-79
2023/01/01 05:06:37;;;;;;;0.10;0.10;;;;;;;13.83;69.93;100936.84;5000458;28;20029;-79
2023/01/01 05:09:02;;;;;;;0.10;0.10;;;;;;;13.85;70.43;100933.00;5019559;28;20033;-80
2023/01/01 05:11:29;;;;;;;0.10;0.10;;;;;;;13.87;69.61;100939.13;5009365;28;20033;-76
2023/01/01 05:13:56;;;;;;;0.10;0.10;;;;;;;13.66;70.63;100933.81;5011575;28;20056;-79
2023/01/01 05:16:24;;;;;;;0.10;0.10;;;;;;;13.88;70.45;100978.59;5015573;28;20021;-78
2023/01/01 05:18:50;;;;;;;0.00;0.00;;;;;;;13.72;72.97;100964.78;4994798;28;20029;-81
2023/01/01 05:21:17;;;;;;;0.00;0.00;;;;;;;13.87;71.77;100984.16;5014856;28;20022;-78
2023/01/01 05:23:43;;;;;;;0.10;0.10;;;;;;;13.79;71.68;100953.31;5009453;28;20067;-77
2023/01/01 05:26:10;;;;;;;0.00;0.00;;;;;;;13.80;72.87;100967.63;5013738;28;20137;-81
2023/01/01 05:28:36;;;;;;;0.00;0.00;;;;;;;13.73;72.46;100961.94;5015322;28;20033;-77
2023/01/01 05:31:07;;;;;;;0.10;0.10;;;;;;;13.85;72.07;100997.78;5017152;28;20538;-82
2023/01/01 05:33:33;;;;;;;0.08;0.08;;;;;;;13.77;73.12;100987.66;5000001;28;20108;-76
2023/01/01 05:35:58;;;;;;;0.10;0.10;;;;;;;13.77;74.21;101017.34;5020551;28;20033;-78
2023/01/01 05:38:24;;;;;;;0.10;0.10;;;;;;;13.67;74.85;101015.59;5015708;28;20033;-77
2023/01/01 05:40:49;;;;;;;0.10;0.10;;;;;;;13.85;72.85;101022.06;5000523;28;20041;-76
2023/01/01 05:43:16;;;;;;;0.10;0.10;;;;;;;13.84;73.63;101016.81;5015105;28;20200;-78
2023/01/01 05:45:43;;;;;;;0.10;0.10;;;;;;;13.83;74.12;101010.53;5017036;28;20028;-76
2023/01/01 05:48:08;;;;;;;0.10;0.10;;;;;;;13.95;74.25;101028.34;5017804;28;20021;-76
2023/01/01 05:50:34;;;;;;;0.10;0.10;;;;;;;13.87;75.01;101019.25;5016701;28;20029;-77
2023/01/01 05:52:59;;;;;;;0.10;0.10;;;;;;;13.53;74.97;100968.28;5018050;28;20087;-78
2023/01/01 05:55:24;;;;;;;0.03;0.03;;;;;;;13.59;75.68;101016.28;5017516;28;20075;-76
2023/01/01 05:57:50;;;;;;;0.10;0.10;;;;;;;13.46;77.24;101036.22;4999462;28;20030;-77
2023/01/01 06:00:15;;;;;;;0.00;0.00;;;;;;;13.64;76.99;101057.19;5015926;28;20480;-75
2023/01/01 06:02:41;;;;;;;0.03;0.03;;;;;;;13.70;76.38;101045.03;5018283;28;20475;-78
2023/01/01 06:05:06;;;;;;;0.10;0.10;;;;;;;13.50;77.92;101042.22;5019265;28;20353;-76
2023/01/01 06:07:32;;;;;;;0.10;0.10;;;;;;;13.62;78.79;101065.44;5018460;28;20487;-76
2023/01/01 06:09:57;;;;;;;0.10;0.10;;;;;;;13.68;78.07;101077.50;5018739;28;20028;-77
2023/01/01 06:12:22;;;;;;;0.00;0.00;;;;;;;13.46;78.85;101055.13;5014546;28;20379;-77
2023/01/01 06:14:47;;;;;;;0.10;0.10;;;;;;;13.24;79.94;101056.09;5002049;28;20038;-76
2023/01/01 06:17:13;;;;;;;0.10;0.10;;;;;;;13.55;80.07;101083.13;5018138;28;20108;-76
2023/01/01 06:19:38;;;;;;;0.00;0.00;;;;;;;13.57;80.56;101091.09;5013668;28;20037;-78
2023/01/01 06:22:04;;;;;;;0.00;0.00;;;;;;;13.14;82.35;101082.97;5017257;28;20045;-78
2023/01/01 06:24:30;;;;;;;0.10;0.10;;;;;;;13.32;81.16;101087.78;5007954;28;20155;-79
2023/01/01 06:26:55;;;;;;;0.00;0.00;;;;;;;13.34;82.16;101102.00;5014823;28;20055;-77
2023/01/01 06:29:20;;;;;;;0.00;0.00;;;;;;;13.41;81.44;101103.19;5004387;28;20380;-78
2023/01/01 06:31:46;;;;;;;0.00;0.00;;;;;;;13.43;80.37;101112.00;5016854;28;20166;-77
2023/01/01 06:34:11;;;;;;;0.00;0.00;;;;;;;13.35;81.08;101114.50;5021482;28;20056;-78
2023/01/01 06:36:36;;;;;;;0.00;0.00;;;;;;;13.12;81.67;101125.38;5019175;28;20053;-75
2023/01/01 06:39:02;;;;;;;0.00;0.00;;;;;;;13.25;83.03;101138.66;5023449;28;20033;-75
2023/01/01 06:41:29;;;;;;;0.00;0.00;;;;;;;12.79;88.98;101132.63;5016688;28;20033;-76
2023/01/01 06:43:55;;;;;;;0.10;0.10;;;;;;;12.25;96.83;101153.13;5004796;28;20440;-76
2023/01/01 06:46:23;;;;;;;0.00;0.00;;;;;;;12.18;98.73;101168.09;5016680;28;20385;-77
2023/01/01 06:48:52;;;;;;;0.00;0.00;;;;;;;11.81;100.00;101210.31;5015604;28;20029;-76
2023/01/01 06:51:20;;;;;;;0.10;0.10;;;;;;;11.35;100.00;101171.66;5000325;28;20071;-77
2023/01/01 06:53:47;;;;;;;0.10;0.10;;;;;;;11.13;100.00;101171.56;5008484;28;20530;-77
2023/01/01 06:56:12;;;;;;;0.10;0.10;;;;;;;11.16;100.00;101168.66;5024997;28;20480;-76
2023/01/01 06:58:37;;;;;;;0.00;0.00;;;;;;;11.04;100.00;101167.75;5018285;28;20113;-75
2023/01/01 07:01:04;;;;;;;0.05;0.05;;;;;;;11.03;100.00;101196.44;5020626;28;20115;-75
2023/01/01 07:03:29;;;;;;;0.00;0.00;;;;;;;10.92;100.00;101178.41;5018924;28;20444;-77
2023/01/01 07:05:54;;;;;;;0.05;0.05;;;;;;;10.97;100.00;101186.16;5023612;28;20133;-77
2023/01/01 07:08:20;;;;;;;0.00;0.00;;;;;;;11.20;100.00;101186.28;5020685;28;20432;-78
2023/01/01 07:10:45;;;;;;;0.08;0.08;;;;;;;11.13;100.00;101168.88;5018989;28;20048;-78
2023/01/01 07:13:11;;;;;;;0.10;0.10;;;;;;;11.25;100.00;101181.41;5017983;28;20480;-78
2023/01/01 07:15:37;;;;;;;0.10;0.10;;;;;;;11.35;100.00;101186.94;5017690;28;20548;-77
2023/01/01 07:18:02;;;;;;;0.10;0.10;;;;;;;11.57;100.00;101207.66;5004108;28;20037;-77
2023/01/01 07:20:27;;;;;;;0.00;0.00;;;;;;;11.54;100.00;101198.00;5020763;28;20565;-78
2023/01/01 07:22:53;;;;;;;0.10;0.10;;;;;;;11.58;100.00;101206.69;5013346;28;20064;-77
2023/01/01 07:25:18;;;;;;;0.10;0.10;;;;;;;11.63;100.00;101225.19;5022345;28;20371;-77
2023/01/01 07:27:43;;;;;;;0.03;0.03;;;;;;;11.42;100.00;101207.00;5017560;28;20480;-77
2023/01/01 07:30:09;;;;;;;0.10;0.10;;;;;;;11.35;100.00;101203.91;4998637;28;20534;-79
2023/01/01 07:32:34;;;;;;;0.08;0.08;;;;;;;11.37;100.00;101207.34;5015100;28;20052;-79
2023/01/01 07:35:00;;;;;;;0.00;0.00;;;;;;;11.32;100.00;101227.50;5015222;28;20029;-78
2023/01/01 07:37:25;;;;;;;0.10;0.10;;;;;;;11.25;100.00;101221.72;5011373;28;20108;-78
2023/01/01 07:39:51;;;;;;;0.05;0.05;;;;;;;11.27;100.00;101227.81;5016768;28;20112;-78
2023/01/01 07:42:16;;;;;;;0.00;0.00;;;;;;;11.37;100.00;101253.06;5019741;28;21651;-76
2023/01/01 07:44:41;;;;;;;0.00;0.00;;;;;;;11.48;100.00;101236.13;4998924;28;20033;-76
2023/01/01 07:47:21;;;;;;;0.00;0.00;;;;;;;11.07;100.00;101229.31;5012133;28;20484;-76
2023/01/01 07:49:47;;;;;;;0.05;0.05;;;;;;;11.20;100.00;101248.94;5013739;28;20033;-77
2023/01/01 07:52:12;;;;;;;0.00;0.00;;;;;;;11.11;100.00;101260.38;5013742;28;20456;-77
2023/01/01 07:54:37;;;;;;;0.10;0.10;;;;;;;10.90;100.00;101250.19;4996556;28;20026;-77
2023/01/01 07:57:03;;;;;;;0.08;0.08;;;;;;;10.78;100.00;101251.09;5014989;28;20065;-76
2023/01/01 07:59:28;;;;;;;0.10;0.10;;;;;;;10.62;100.00;101268.31;5014242;28;20144;-76
2023/01/01 08:01:53;;;;;;;0.10;0.10;;;;;;;10.54;100.00;101265.31;5015286;28;20717;-76
2023/01/01 08:04:19;;;;;;;0.00;0.00;;;;;;;10.61;100.00;101284.53;5015000;28;20041;-76
2023/01/01 08:06:44;;;;;;;0.03;0.03;;;;;;;10.61;100.00;101309.56;5007031;28;20117;-76
2023/01/01 08:09:09;;;;;;;0.08;0.08;;;;;;;10.49;100.00;101297.00;5013334;28;20032;-76
2023/01/01 08:11:35;;;;;;;0.10;0.10;;;;;;;10.50;100.00;101301.41;5011623;28;20025;-75
2023/01/01 08:14:00;;;;;;;0.00;0.00;;;;;;;10.59;100.00;101321.38;5010274;28;20152;-76
2023/01/01 08:16:25;;;;;;;0.10;0.10;;;;;;;10.72;100.00;101342.84;5010535;28;20086;-75
2023/01/01 08:18:51;;;;;;;0.05;0.05;;;;;;;10.57;100.00;101345.66;5011403;28;20493;-76
2023/01/01 08:21:16;;;;;;;0.10;0.10;;;;;;;10.52;100.00;101345.13;5009807;28;20484;-75
2023/01/01 08:23:41;;;;;;;0.00;0.00;;;;;;;10.05;100.00;101302.66;5014893;28;20128;-76
2023/01/01 08:26:14;;;;;;;0.10;0.10;;;;;;;10.15;100.00;101351.16;5011934;28;20503;-76
2023/01/01 08:28:39;;;;;;;0.10;0.10;;;;;;;10.09;100.00;101351.56;4996070;28;20447;-75
2023/01/01 08:31:04;;;;;;;0.10;0.10;;;;;;;9.99;100.00;101348.66;5015640;28;20528;-75
2023/01/01 08:33:30;;;;;;;0.00;0.00;;;;;;;9.90;100.00;101351.94;4998281;28;20483;-76
2023/01/01 08:35:55;;;;;;;0.00;0.00;;;;;;;9.79;100.00;101335.72;5016156;28;20127;-74
2023/01/01 08:38:20;;;;;;;0.10;0.10;;;;;;;9.65;100.00;101324.09;5011846;28;20540;-76
2023/01/01 08:40:46;;;;;;;0.10;0.10;;;;;;;9.82;100.00;101346.22;5016242;28;20037;-77
2023/01/01 08:43:11;;;;;;;0.10;0.10;;;;;;;9.68;100.00;101323.88;5018795;28;20038;-76
2023/01/01 08:45:36;;;;;;;0.10;0.10;;;;;;;9.77;100.00;101359.94;5013273;28;20735;-77
2023/01/01 08:48:03;;;;;;;0.10;0.10;;;;;;;9.97;100.00;101373.84;5010907;28;20531;-77
2023/01/01 08:50:28;;;;;;;0.10;0.10;;;;;;;9.90;100.00;101360.88;5012784;28;20991;-76
2023/01/01 08:52:53;;;;;;;0.10;0.10;;;;;;;9.78;100.00;101369.72;5015900;28;20044;-76
2023/01/01 08:55:19;;;;;;;0.10;0.10;;;;;;;9.97;100.00;101377.41;5012993;28;20033;-76
2023/01/01 08:57:44;;;;;;;0.10;0.10;;;;;;;9.89;100.00;101379.72;5008493;28;20037;-75
2023/01/01 09:00:12;;;;;;;0.10;0.10;;;;;;;9.91;100.00;101359.03;5010008;28;20037;-76
2023/01/01 09:02:37;;;;;;;0.03;0.03;;;;;;;10.00;100.00;101369.16;5002270;28;20029;-76
2023/01/01 09:05:03;;;;;;;0.10;0.10;;;;;;;9.83;100.00;101345.25;5006875;28;20455;-76
2023/01/01 09:07:28;;;;;;;0.10;0.10;;;;;;;10.02;100.00;101367.25;5011604;28;20121;-75
2023/01/01 09:09:53;;;;;;;0.00;0.00;;;;;;;9.99;100.00;101353.16;5008147;28;20036;-76
2023/01/01 09:12:19;;;;;;;0.10;0.10;;;;;;;10.10;100.00;101385.50;5008037;28;20591;-79
2023/01/01 09:14:47;;;;;;;0.10;0.10;;;;;;;10.23;100.00;101374.78;4994625;28;20033;-75
2023/01/01 09:17:12;;;;;;;0.10;0.10;;;;;;;10.13;100.00;101369.19;5010593;28;20029;-76
2023/01/01 09:19:38;;;;;;;0.10;0.10;;;;;;;10.29;100.00;101376.19;5009745;28;20038;-75
2023/01/01 09:22:03;;;;;;;0.10;0.10;;;;;;;10.14;100.00;101376.28;5009335;28;20053;-76
2023/01/01 09:24:28;;;;;;;0.10;0.10;;;;;;;10.11;100.00;101365.75;5010262;28;20162;-76
2023/01/01 09:26:54;;;;;;;0.10;0.10;;;;;;;10.09;100.00;101378.41;5007840;28;20033;-76
2023/01/01 09:29:20;;;;;;;0.05;0.05;;;;;;;10.18;100.00;101391.22;5011860;28;20040;-76
2023/01/01 09:31:47;;;;;;;0.08;0.08;;;;;;;10.23;100.00;101376.59;5012013;28;20025;-75
2023/01/01 09:34:12;;;;;;;0.10;0.10;;;;;;;10.44;100.00;101404.72;5006892;28;20487;-76
2023/01/01 09:36:38;;;;;;;0.10;0.10;;;;;;;10.23;100.00;101398.06;5011807;28;20037;-76
2023/01/01 09:39:03;;;;;;;0.10;0.10;;;;;;;10.38;100.00;101407.78;5014033;28;20030;-76
2023/01/01 09:41:33;;;;;;;0.10;0.10;;;;;;;10.24;100.00;101395.31;5009847;28;20033;-75
2023/01/01 09:44:23;;;;;;;0.08;0.08;;;;;;;10.31;100.00;101411.84;5009951;28;20044;-75
2023/01/01 09:46:50;;;;;;;0.10;0.10;;;;;;;10.08;100.00;101405.31;5010322;28;20037;-75
2023/01/01 09:49:33;;;;;;;0.10;0.10;;;;;;;9.99;100.00;101404.13;4994428;28;20040;-75
2023/01/01 09:52:00;;;;;;;0.10;0.10;;;;;;;10.01;100.00;101413.81;5026160;28;20034;-75
2023/01/01 09:54:32;;;;;;;0.13;0.10;;;;;;;9.86;100.00;101409.44;5009733;28;20532;-75
2023/01/01 09:56:59;;;;;;;0.00;0.00;;;;;;;10.11;100.00;101386.34;4998118;28;20037;-75
2023/01/01 09:59:25;;;;;;;0.00;0.00;;;;;;;10.04;100.00;101402.88;5016089;28;20025;-75
2023/01/01 10:01:59;;;;;;;0.10;0.10;;;;;;;9.96;100.00;101404.31;5000126;28;20032;-75
2023/01/01 10:04:42;;;;;;;;;;;;;;;10.11;100.00;101414.03;5019400;28;20041;-76
2023/01/01 10:07:20;;;;;;;0.10;0.10;;;;;;;9.91;100.00;101407.31;4995861;28;19917;-76
2023/01/01 10:10:04;;;;;;;0.10;0.10;;;;;;;9.98;100.00;101411.31;5034135;28;20480;-76
2023/01/01 10:12:51;;;;;;;0.10;0.10;;;;;;;10.06;100.00;101405.44;5019716;28;20095;-76
2023/01/01 10:15:22;;;;;;;0.10;0.10;;;;;;;10.15;100.00;101410.19;5016137;28;20645;-76
2023/01/01 10:17:51;;;;;;;0.10;0.10;;;;;;;10.13;100.00;101417.50;5021846;28;20033;-75
2023/01/01 10:20:27;;;;;;;0.08;0.08;;;;;;;9.94;100.00;101382.09;5018526;28;20025;-75
2023/01/01 10:22:56;;;;;;;0.10;0.10;;;;;;;10.22;100.00;101429.44;5014560;28;20048;-76
2023/01/01 10:25:27;;;;;;;0.10;0.10;;;;;;;10.20;100.00;101418.78;5014609;28;20484;-76
2023/01/01 10:27:58;;;;;;;0.00;0.00;;;;;;;10.28;100.00;101422.78;5001373;28;20051;-76
2023/01/01 10:30:24;;;;;;;0.17;0.17;;;;;;;10.30;100.00;101410.13;5013814;28;20048;-75
2023/01/01 10:32:51;;;;;;;0.10;0.10;;;;;;;10.40;100.00;101415.75;5014742;28;20396;-75
2023/01/01 10:35:29;;;;;;;0.10;0.10;;;;;;;10.45;100.00;101414.50;4998352;28;20542;-75
2023/01/01 10:37:56;;;;;;;0.00;0.00;;;;;;;10.56;100.00;101396.78;5012429;28;20045;-75
2023/01/01 10:40:22;;;;;;;0.10;0.10;;;;;;;10.77;100.00;101415.91;5013135;28;20137;-75
2023/01/01 10:42:50;;;;;;;0.10;0.10;;;;;;;10.79;100.00;101413.97;5018227;28;20065;-75
2023/01/01 10:45:18;;;;;;;0.00;0.00;;;;;;;10.77;100.00;101400.66;5017141;28;20029;-75
2023/01/01 10:48:10;;;;;;;0.10;0.10;;;;;;;11.08;100.00;101419.13;5014321;28;20064;-75
2023/01/01 10:50:47;;;;;;;0.10;0.10;;;;;;;11.31;100.00;101406.72;5012269;28;20431;-75
2023/01/01 10:53:33;;;;;;;0.10;0.10;;;;;;;11.59;100.00;101415.47;5002678;28;20379;-75
2023/01/01 10:56:07;;;;;;;0.10;0.10;;;;;;;11.45;100.00;101410.25;5016298;28;20847;-76
2023/01/01 10:58:40;;;;;;;0.10;0.10;;;;;;;11.30;100.00;101372.75;5016027;28;20488;-75
2023/01/01 11:01:09;;;;;;;0.10;0.10;;;;;;;11.40;100.00;101411.44;5016151;28;20384;-76
2023/01/01 11:03:35;;;;;;;0.10;0.10;;;;;;;11.56;100.00;101410.31;4999098;28;20365;-76
2023/01/01 11:06:05;;;;;;;0.10;0.10;;;;;;;11.25;100.00;101417.94;5014490;28;20494;-75
2023/01/01 11:08:32;;;;;;;0.10;0.10;;;;;;;11.34;100.00;101405.66;5017104;28;20514;-76
2023/01/01 11:11:00;;;;;;;0.10;0.10;;;;;;;11.23;100.00;101401.91;5014105;28;20598;-76
2023/01/01 11:13:27;;;;;;;0.10;0.10;;;;;;;11.42;100.00;101407.78;5015489;28;20037;-76
2023/01/01 11:15:52;;;;;;;0.10;0.10;;;;;;;11.36;100.00;101392.97;4996787;28;20061;-75
2023/01/01 11:18:24;;;;;;;0.10;0.10;;;;;;;11.51;100.00;101429.50;5014379;28;20497;-75
2023/01/01 11:20:54;;;;;;;0.10;0.10;;;;;;;11.60;100.00;101427.97;5018537;28;20461;-75
2023/01/01 11:23:35;;;;;;;0.10;0.10;;;;;;;11.59;100.00;101433.47;4995927;28;20036;-75
2023/01/01 11:26:18;;;;;;;0.10;0.10;;;;;;;11.64;100.00;101442.91;5002358;28;20067;-75
2023/01/01 11:29:15;;;;;;;0.10;0.10;;;;;;;11.65;100.00;101422.25;5004100;28;20109;-76
2023/01/01 11:31:42;;;;;;;0.10;0.10;;;;;;;11.65;100.00;101438.41;5028579;28;20033;-76
2023/01/01 11:34:27;;;;;;;0.10;0.10;;;;;;;11.48;100.00;101410.03;5011952;28;20030;-75